createdAt,value
2022-11-03T00:02:18.832Z,100.00
2022-11-03T00:04:46.434Z,100.00
2022-11-03T00:07:21.927Z,100.00
2022-11-03T00:09:49.862Z,100.00
2022-11-03T00:12:17.690Z,100.00
2022-11-03T00:14:45.262Z,100.00
2022-11-03T00:17:13.113Z,100.00
2022-11-03T00:19:40.632Z,100.00
2022-11-03T00:22:08.514Z,100.00
2022-11-03T00:24:35.981Z,100.00
2022-11-03T00:27:03.934Z,100.00
2022-11-03T00:29:31.407Z,100.00
2022-11-03T00:31:59.291Z,100.00
2022-11-03T00:34:27.020Z,100.00
2022-11-03T00:36:55.461Z,100.00
2022-11-03T00:39:22.919Z,100.00
2022-11-03T00:41:51.837Z,100.00
2022-11-03T00:44:19.335Z,100.00
2022-11-03T00:46:46.847Z,100.00
2022-11-03T00:49:14.757Z,100.00
2022-11-03T00:51:42.334Z,100.00
2022-11-03T00:54:10.167Z,100.00
2022-11-03T00:56:40.948Z,100.00
2022-11-03T00:59:10.317Z,100.00
2022-11-03T01:01:47.223Z,100.00
2022-11-03T01:04:35.506Z,100.00
2022-11-03T01:07:06.234Z,100.00
2022-11-03T01:09:43.461Z,100.00
2022-11-03T01:12:18.404Z,100.00
2022-11-03T01:14:50.491Z,100.00
2022-11-03T01:17:27.496Z,100.00
2022-11-03T01:19:55.866Z,100.00
2022-11-03T01:22:24.589Z,100.00
2022-11-03T01:24:52.229Z,100.00
2022-11-03T01:27:22.594Z,100.00
2022-11-03T01:29:50.206Z,100.00
2022-11-03T01:32:18.886Z,100.00
2022-11-03T01:34:46.349Z,100.00
2022-11-03T01:37:14.186Z,100.00
2022-11-03T01:39:41.794Z,100.00
2022-11-03T01:42:14.579Z,100.00
2022-11-03T01:44:50.021Z,100.00
2022-11-03T01:47:43.834Z,100.00
2022-11-03T01:50:23.620Z,100.00
2022-11-03T01:53:01.069Z,100.00
2022-11-03T01:55:44.319Z,100.00
2022-11-03T01:58:35.952Z,100.00
2022-11-03T02:01:10.525Z,100.00
2022-11-03T02:03:55.940Z,100.00
2022-11-03T02:06:34.360Z,100.00
2022-11-03T02:09:14.305Z,100.00
2022-11-03T02:12:07.094Z,100.00
2022-11-03T02:14:53.067Z,100.00
2022-11-03T02:17:26.557Z,100.00
2022-11-03T02:20:20.811Z,100.00
2022-11-03T02:23:19.645Z,100.00
2022-11-03T02:26:05.999Z,100.00
2022-11-03T02:28:39.534Z,100.00
2022-11-03T02:31:24.641Z,100.00
2022-11-03T02:34:44.441Z,100.00
2022-11-03T02:37:38.785Z,100.00
2022-11-03T02:40:27.781Z,100.00
2022-11-03T02:43:34.196Z,100.00
2022-11-03T02:46:11.519Z,100.00
2022-11-03T02:48:51.630Z,100.00
2022-11-03T02:51:28.841Z,100.00
2022-11-03T02:54:52.807Z,100.00
2022-11-03T02:57:32.331Z,100.00
2022-11-03T03:00:18.028Z,100.00
2022-11-03T03:03:23.983Z,100.00
2022-11-03T03:06:07.622Z,100.00
2022-11-03T03:08:46.883Z,100.00
2022-11-03T03:11:49.523Z,100.00
2022-11-03T03:14:45.198Z,100.00
2022-11-03T03:17:40.367Z,100.00
2022-11-03T03:20:19.668Z,100.00
2022-11-03T03:23:26.588Z,100.00
2022-11-03T03:26:10.822Z,100.00
2022-11-03T03:28:53.637Z,100.00
2022-11-03T03:31:23.745Z,100.00
2022-11-03T03:34:04.376Z,100.00
2022-11-03T03:36:35.136Z,100.00
2022-11-03T03:39:07.004Z,100.00
2022-11-03T03:41:36.222Z,100.00
2022-11-03T03:44:06.462Z,100.00
2022-11-03T03:46:44.642Z,100.00
2022-11-03T03:49:12.563Z,100.00
2022-11-03T03:51:41.098Z,100.00
2022-11-03T03:54:09.052Z,100.00
2022-11-03T03:57:05.091Z,100.00
2022-11-03T03:59:33.151Z,100.00
2022-11-03T04:02:00.892Z,100.00
2022-11-03T04:04:28.935Z,100.00
2022-11-03T04:07:15.573Z,100.00
2022-11-03T04:09:43.059Z,100.00
2022-11-03T04:12:29.774Z,100.00
2022-11-03T04:15:15.615Z,100.00
2022-11-03T04:18:07.485Z,100.00
2022-11-03T04:20:53.885Z,100.00
2022-11-03T04:23:21.879Z,100.00
2022-11-03T04:25:54.207Z,100.00
2022-11-03T04:28:22.614Z,100.00
2022-11-03T04:30:53.394Z,100.00
2022-11-03T04:33:24.193Z,100.00
2022-11-03T04:35:54.747Z,100.00
2022-11-03T04:38:25.732Z,100.00
2022-11-03T04:40:57.301Z,100.00
2022-11-03T04:43:37.061Z,100.00
2022-11-03T04:46:10.290Z,100.00
2022-11-03T04:48:37.995Z,100.00
2022-11-03T04:51:17.952Z,100.00
2022-11-03T04:53:54.520Z,100.00
2022-11-03T04:56:25.151Z,100.00
2022-11-03T04:58:53.995Z,100.00
2022-11-03T05:01:24.838Z,100.00
2022-11-03T05:03:54.554Z,100.00
2022-11-03T05:06:27.094Z,100.00
2022-11-03T05:09:27.784Z,100.00
2022-11-03T05:11:55.663Z,100.00
2022-11-03T05:14:30.290Z,100.00
2022-11-03T05:16:59.640Z,100.00
2022-11-03T05:19:58.022Z,100.00
2022-11-03T05:22:31.179Z,100.00
2022-11-03T05:25:10.738Z,100.00
2022-11-03T05:27:38.658Z,100.00
2022-11-03T05:30:13.964Z,100.00
2022-11-03T05:32:42.360Z,100.00
2022-11-03T05:35:23.124Z,100.00
2022-11-03T05:37:51.748Z,100.00
2022-11-03T05:40:24.928Z,100.00
2022-11-03T05:42:58.919Z,100.00
2022-11-03T05:45:37.430Z,100.00
2022-11-03T05:48:33.293Z,100.00
2022-11-03T05:51:19.711Z,100.00
2022-11-03T05:53:57.175Z,100.00
2022-11-03T05:56:25.829Z,100.00
2022-11-03T05:58:59.289Z,100.00
2022-11-03T06:01:37.332Z,100.00
2022-11-03T06:04:20.504Z,100.00
2022-11-03T06:06:58.987Z,100.00
2022-11-03T06:09:27.941Z,100.00
2022-11-03T06:11:58.791Z,100.00
2022-11-03T06:14:30.014Z,100.00
2022-11-03T06:17:10.544Z,100.00
2022-11-03T06:19:44.918Z,100.00
2022-11-03T06:22:27.644Z,100.00
2022-11-03T06:25:12.169Z,100.00
2022-11-03T06:27:40.341Z,100.00
2022-11-03T06:30:26.048Z,100.00
2022-11-03T06:32:58.871Z,100.00
2022-11-03T06:35:26.610Z,100.00
2022-11-03T06:37:58.042Z,100.00
2022-11-03T06:40:36.685Z,100.00
2022-11-03T06:43:28.874Z,100.00
2022-11-03T06:45:59.416Z,100.00
2022-11-03T06:48:34.454Z,100.00
2022-11-03T06:51:02.447Z,100.00
2022-11-03T06:53:33.772Z,100.00
2022-11-03T06:56:01.441Z,100.00
2022-11-03T06:58:40.468Z,100.00
2022-11-03T07:01:20.178Z,100.00
2022-11-03T07:03:52.684Z,100.00
2022-11-03T07:06:29.248Z,100.00
2022-11-03T07:09:04.921Z,100.00
2022-11-03T07:11:43.849Z,100.00
2022-11-03T07:14:33.197Z,100.00
2022-11-03T07:17:05.637Z,100.00
2022-11-03T07:19:45.668Z,100.00
2022-11-03T07:22:22.424Z,100.00
2022-11-03T07:25:02.805Z,100.00
2022-11-03T07:27:36.428Z,100.00
2022-11-03T07:30:22.797Z,100.00
2022-11-03T07:32:54.061Z,100.00
2022-11-03T07:36:13.115Z,100.00
2022-11-03T07:38:29.838Z,100.00
2022-11-03T07:41:00.006Z,100.00
2022-11-03T07:43:39.536Z,100.00
2022-11-03T07:46:16.647Z,100.00
2022-11-03T07:48:48.299Z,100.00
2022-11-03T07:51:30.012Z,100.00
2022-11-03T07:54:08.684Z,100.00
2022-11-03T07:56:56.826Z,100.00
2022-11-03T07:59:41.321Z,100.00
2022-11-03T08:02:47.110Z,100.00
2022-11-03T08:05:14.975Z,100.00
2022-11-03T08:07:42.804Z,100.00
2022-11-03T08:10:10.743Z,100.00
2022-11-03T08:12:38.540Z,100.00
2022-11-03T08:15:07.331Z,100.00
2022-11-03T08:17:35.058Z,100.00
2022-11-03T08:20:02.498Z,100.00
2022-11-03T08:22:30.401Z,100.00
2022-11-03T08:24:57.813Z,100.00
2022-11-03T08:27:27.466Z,100.00
2022-11-03T08:29:54.934Z,100.00
2022-11-03T08:32:22.978Z,100.00
2022-11-03T08:34:50.562Z,100.00
2022-11-03T08:37:18.375Z,100.00
2022-11-03T08:39:45.788Z,100.00
2022-11-03T08:42:13.597Z,100.00
2022-11-03T08:44:41.022Z,100.00
2022-11-03T08:47:08.899Z,100.00
2022-11-03T08:49:36.321Z,100.00
2022-11-03T08:52:04.993Z,100.00
2022-11-03T08:54:32.578Z,99.61
2022-11-03T08:57:00.508Z,99.33
2022-11-03T08:59:27.970Z,98.97
2022-11-03T09:01:57.746Z,98.58
2022-11-03T09:04:25.307Z,98.11
2022-11-03T09:06:53.100Z,98.09
2022-11-03T09:12:09.713Z,97.55
2022-11-03T09:14:37.465Z,97.58
2022-11-03T09:17:05.071Z,97.19
2022-11-03T09:19:33.148Z,97.18
2022-11-03T09:22:00.730Z,97.78
2022-11-03T09:24:28.315Z,96.48
2022-11-03T09:27:01.086Z,96.24
2022-11-03T09:29:36.451Z,96.75
2022-11-03T09:32:23.004Z,97.29
2022-11-03T09:34:51.149Z,97.59
2022-11-03T09:37:18.996Z,97.63
2022-11-03T09:39:46.416Z,97.00
2022-11-03T09:42:15.512Z,97.08
2022-11-03T09:44:43.578Z,97.71
2022-11-03T09:47:24.450Z,97.37
2022-11-03T09:49:52.388Z,96.25
2022-11-03T09:52:24.104Z,95.54
2022-11-03T09:54:59.792Z,95.24
2022-11-03T09:57:29.047Z,94.75
2022-11-03T09:59:56.660Z,94.27
2022-11-03T10:02:31.368Z,94.42
2022-11-03T10:05:04.303Z,94.05
2022-11-03T10:07:34.666Z,93.87
2022-11-03T10:10:02.290Z,94.10
2022-11-03T10:12:35.904Z,92.84
2022-11-03T10:15:03.680Z,93.20
2022-11-03T10:17:31.589Z,93.52
2022-11-03T10:19:59.740Z,93.57
2022-11-03T10:22:27.674Z,93.76
2022-11-03T10:25:37.108Z,93.50
2022-11-03T10:28:23.354Z,93.80
2022-11-03T10:31:12.919Z,93.63
2022-11-03T10:34:01.726Z,93.50
2022-11-03T10:36:32.439Z,93.33
2022-11-03T10:39:20.663Z,93.71
2022-11-03T10:42:00.405Z,93.18
2022-11-03T10:44:30.107Z,93.43
2022-11-03T10:47:03.917Z,94.27
2022-11-03T10:49:42.509Z,94.46
2022-11-03T10:52:23.198Z,95.02
2022-11-03T10:54:54.705Z,94.85
2022-11-03T10:57:24.037Z,94.66
2022-11-03T10:59:54.251Z,94.56
2022-11-03T11:02:31.340Z,94.42
2022-11-03T11:05:02.808Z,93.84
2022-11-03T11:07:42.051Z,93.34
2022-11-03T11:10:27.672Z,93.37
2022-11-03T11:13:26.620Z,92.90
2022-11-03T11:16:00.571Z,93.27
2022-11-03T11:18:31.440Z,94.11
2022-11-03T11:21:20.580Z,94.36
2022-11-03T11:23:49.660Z,93.98
2022-11-03T11:26:34.260Z,94.22
2022-11-03T11:29:11.172Z,94.57
2022-11-03T11:31:43.092Z,94.74
2022-11-03T11:34:16.965Z,95.47
2022-11-03T11:36:55.789Z,95.52
2022-11-03T11:39:31.126Z,95.38
2022-11-03T11:42:14.833Z,95.16
2022-11-03T11:44:45.975Z,95.05
2022-11-03T11:47:41.147Z,95.17
2022-11-03T11:50:11.617Z,95.09
2022-11-03T11:53:05.178Z,95.09
2022-11-03T11:56:01.800Z,94.80
2022-11-03T11:58:43.750Z,95.05
2022-11-03T12:01:23.311Z,95.07
2022-11-03T12:03:53.853Z,94.90
2022-11-03T12:06:42.797Z,94.76
2022-11-03T12:09:13.739Z,93.98
2022-11-03T12:11:50.184Z,93.79
2022-11-03T12:14:39.776Z,93.34
2022-11-03T12:17:19.323Z,93.58
2022-11-03T12:19:56.150Z,93.80
2022-11-03T12:22:23.553Z,93.79
2022-11-03T12:24:56.662Z,93.63
2022-11-03T12:27:26.981Z,93.91
2022-11-03T12:30:04.529Z,94.09
2022-11-03T12:32:34.849Z,92.94
2022-11-03T12:35:05.441Z,92.26
2022-11-03T12:37:33.022Z,91.69
2022-11-03T12:40:00.687Z,91.24
2022-11-03T12:42:28.596Z,91.49
2022-11-03T12:44:56.195Z,92.07
2022-11-03T12:47:24.243Z,92.16
2022-11-03T12:49:52.173Z,93.27
2022-11-03T12:52:19.630Z,92.25
2022-11-03T12:54:47.437Z,90.50
2022-11-03T12:57:14.967Z,90.37
2022-11-03T12:59:42.847Z,88.03
2022-11-03T13:02:11.955Z,84.67
2022-11-03T13:04:39.906Z,83.96
2022-11-03T13:07:07.430Z,81.67
2022-11-03T13:09:36.022Z,80.50
2022-11-03T13:12:22.341Z,78.99
2022-11-03T13:14:50.172Z,77.13
2022-11-03T13:17:17.591Z,74.76
2022-11-03T13:19:45.606Z,73.44
2022-11-03T13:22:13.050Z,72.19
2022-11-03T13:24:41.011Z,71.68
2022-11-03T13:27:08.911Z,70.73
2022-11-03T13:29:36.674Z,70.52
2022-11-03T13:32:05.108Z,70.39
2022-11-03T13:34:32.900Z,69.15
2022-11-03T13:37:00.449Z,68.01
2022-11-03T13:39:28.358Z,67.38
2022-11-03T13:41:55.804Z,66.60
2022-11-03T13:44:23.574Z,65.71
2022-11-03T13:46:51.318Z,64.93
2022-11-03T13:50:07.639Z,64.05
2022-11-03T13:52:08.794Z,62.17
2022-11-03T14:00:14.269Z,60.43
2022-11-03T14:05:29.960Z,58.90
2022-11-03T14:07:57.473Z,58.49
2022-11-03T14:10:25.375Z,58.14
2022-11-03T14:12:52.789Z,57.19
2022-11-03T14:15:20.616Z,57.22
2022-11-03T14:17:50.736Z,55.84
2022-11-03T14:20:18.676Z,55.99
2022-11-03T14:22:46.246Z,55.49
2022-11-03T14:25:14.349Z,54.55
2022-11-03T14:27:41.916Z,54.44
2022-11-03T14:30:11.943Z,55.08
2022-11-03T14:32:39.728Z,55.87
2022-11-03T14:35:08.164Z,57.05
2022-11-03T14:37:35.918Z,58.54
2022-11-03T14:40:05.958Z,60.19
2022-11-03T14:42:33.506Z,61.81
2022-11-03T14:45:03.621Z,63.90
2022-11-03T14:47:31.605Z,65.85
2022-11-03T14:49:59.092Z,68.11
2022-11-03T14:52:26.772Z,69.33
2022-11-03T14:54:54.539Z,70.95
2022-11-03T14:57:22.110Z,72.27
2022-11-03T14:59:53.427Z,73.90
2022-11-03T15:02:21.378Z,74.82
2022-11-03T15:04:49.287Z,76.20
2022-11-03T15:07:16.783Z,76.80
2022-11-03T15:09:44.223Z,78.01
2022-11-03T15:12:12.124Z,79.17
2022-11-03T15:14:39.595Z,80.26
2022-11-03T15:17:07.310Z,80.76
2022-11-03T15:19:35.146Z,81.40
2022-11-03T15:22:02.615Z,81.67
2022-11-03T15:27:17.886Z,82.74
2022-11-03T15:30:07.573Z,83.71
2022-11-03T15:32:36.618Z,84.56
2022-11-03T15:35:05.253Z,84.45
2022-11-03T15:37:32.720Z,85.66
2022-11-03T15:40:00.530Z,86.41
2022-11-03T15:42:28.277Z,86.38
2022-11-03T15:44:56.100Z,86.65
2022-11-03T15:47:23.622Z,86.97
2022-11-03T15:49:51.925Z,87.11
2022-11-03T15:52:19.395Z,87.94
2022-11-03T15:54:48.715Z,87.90
2022-11-03T15:57:16.253Z,88.11
2022-11-03T15:59:44.161Z,88.56
2022-11-03T16:02:39.677Z,89.11
2022-11-03T16:05:02.180Z,89.39
2022-11-03T16:07:30.264Z,89.38
2022-11-03T16:09:59.521Z,89.67
2022-11-03T16:12:28.605Z,90.31
2022-11-03T16:14:56.154Z,90.11
2022-11-03T16:17:24.138Z,90.57
2022-11-03T16:19:51.654Z,90.76
2022-11-03T16:22:19.650Z,91.21
2022-11-03T16:24:48.654Z,91.26
2022-11-03T16:27:16.457Z,91.40
2022-11-03T16:29:44.331Z,92.41
2022-11-03T16:32:12.136Z,93.66
2022-11-03T16:34:39.647Z,93.75
2022-11-03T16:37:07.634Z,93.54
2022-11-03T16:39:35.239Z,93.77
2022-11-03T16:42:03.385Z,93.88
2022-11-03T16:44:30.987Z,94.51
2022-11-03T16:46:58.946Z,94.90
2022-11-03T16:49:26.389Z,95.39
2022-11-03T16:51:56.465Z,95.10
2022-11-03T16:54:23.970Z,95.34
2022-11-03T16:56:55.289Z,95.39
2022-11-03T16:59:25.706Z,95.84
2022-11-03T17:01:57.367Z,96.28
2022-11-03T17:04:25.653Z,96.10
2022-11-03T17:06:53.732Z,96.06
2022-11-03T17:09:22.268Z,96.51
2022-11-03T17:11:50.316Z,97.05
2022-11-03T17:14:18.203Z,97.22
2022-11-03T17:16:48.414Z,97.66
2022-11-03T17:19:16.409Z,97.44
2022-11-03T17:21:44.504Z,97.54
2022-11-03T17:24:13.390Z,98.63
2022-11-03T17:26:47.369Z,98.39
2022-11-03T17:29:18.184Z,98.88
2022-11-03T17:31:46.307Z,99.13
2022-11-03T17:34:13.978Z,99.03
2022-11-03T17:36:41.857Z,98.51
2022-11-03T17:39:14.730Z,98.70
2022-11-03T17:41:42.582Z,98.56
2022-11-03T17:44:13.826Z,98.45
2022-11-03T17:46:41.769Z,98.49
2022-11-03T17:49:09.227Z,97.98
2022-11-03T17:51:42.162Z,98.42
2022-11-03T17:54:16.311Z,98.91
2022-11-03T17:56:44.593Z,98.36
2022-11-03T17:59:16.217Z,98.45
2022-11-03T18:01:45.397Z,97.82
2022-11-03T18:06:48.079Z,97.48
2022-11-03T18:09:16.270Z,97.54
2022-11-03T18:12:02.986Z,97.55
2022-11-03T18:14:31.213Z,97.32
2022-11-03T18:16:59.359Z,97.71
2022-11-03T18:19:27.060Z,97.48
2022-11-03T18:21:54.872Z,97.33
2022-11-03T18:24:22.467Z,97.24
2022-11-03T18:26:50.356Z,97.51
2022-11-03T18:29:17.885Z,97.97
2022-11-03T18:31:49.906Z,97.43
2022-11-03T18:34:25.087Z,97.21
2022-11-03T18:36:53.515Z,97.29
2022-11-03T18:39:28.023Z,97.85
2022-11-03T18:41:56.714Z,98.19
2022-11-03T18:44:29.910Z,97.80
2022-11-03T18:46:59.012Z,97.68
2022-11-03T18:49:30.250Z,97.02
2022-11-03T18:52:14.062Z,97.32
2022-11-03T18:54:52.236Z,97.22
2022-11-03T18:57:26.458Z,97.53
2022-11-03T18:59:54.093Z,97.54
2022-11-03T19:02:25.443Z,97.99
2022-11-03T19:04:53.117Z,97.83
2022-11-03T19:07:32.090Z,98.04
2022-11-03T19:10:00.752Z,98.04
2022-11-03T19:12:28.655Z,98.11
2022-11-03T19:14:58.176Z,97.81
2022-11-03T19:17:26.424Z,97.54
2022-11-03T19:19:54.346Z,97.31
2022-11-03T19:22:23.900Z,97.19
2022-11-03T19:24:51.371Z,96.51
2022-11-03T19:27:28.927Z,96.82
2022-11-03T19:29:59.543Z,96.11
2022-11-03T19:32:43.531Z,96.43
2022-11-03T19:35:32.705Z,96.15
2022-11-03T19:38:17.244Z,96.49
2022-11-03T19:41:05.138Z,96.15
2022-11-03T19:43:38.530Z,96.45
2022-11-03T19:46:06.374Z,96.70
2022-11-03T19:48:38.743Z,97.22
2022-11-03T19:51:08.452Z,97.12
2022-11-03T19:53:37.126Z,97.25
2022-11-03T19:56:04.997Z,97.47
2022-11-03T19:58:33.014Z,97.93
2022-11-03T20:01:05.595Z,97.71
2022-11-03T20:03:37.648Z,97.88
2022-11-03T20:06:07.530Z,98.40
2022-11-03T20:08:37.121Z,98.63
2022-11-03T20:11:06.359Z,98.67
2022-11-03T20:13:42.813Z,98.96
2022-11-03T20:16:16.133Z,98.78
2022-11-03T20:18:44.307Z,99.45
2022-11-03T20:21:20.069Z,99.41
2022-11-03T20:23:54.250Z,99.25
2022-11-03T20:26:25.575Z,99.30
2022-11-03T20:28:56.438Z,99.25
2022-11-03T20:31:24.654Z,99.33
2022-11-03T20:33:52.201Z,99.67
2022-11-03T20:36:21.052Z,99.57
2022-11-03T20:38:59.150Z,99.25
2022-11-03T20:41:29.323Z,99.57
2022-11-03T20:43:57.880Z,99.59
2022-11-03T20:46:29.452Z,99.23
2022-11-03T20:48:57.573Z,99.40
2022-11-03T20:51:31.209Z,99.09
2022-11-03T20:54:22.296Z,98.75
2022-11-03T20:56:50.949Z,99.03
2022-11-03T20:59:21.331Z,98.51
2022-11-03T21:01:50.727Z,98.58
2022-11-03T21:04:21.202Z,98.66
2022-11-03T21:06:49.643Z,98.50
2022-11-03T21:09:18.697Z,98.36
2022-11-03T21:11:47.143Z,97.87
2022-11-03T21:14:16.658Z,97.95
2022-11-03T21:17:02.814Z,98.20
2022-11-03T21:19:51.424Z,98.28
2022-11-03T21:22:51.913Z,97.98
2022-11-03T21:25:18.902Z,97.59
2022-11-03T21:27:51.920Z,97.42
2022-11-03T21:30:21.551Z,97.41
2022-11-03T21:32:49.583Z,96.98
2022-11-03T21:35:21.953Z,96.81
2022-11-03T21:37:52.121Z,96.91
2022-11-03T21:40:20.130Z,96.87
2022-11-03T21:43:08.127Z,97.02
2022-11-03T21:45:36.350Z,96.83
2022-11-03T21:48:23.215Z,96.78
2022-11-03T21:50:52.030Z,96.82
2022-11-03T21:54:46.749Z,96.94
2022-11-03T21:57:29.038Z,97.17
2022-11-03T22:00:08.379Z,96.89
2022-11-03T22:02:48.859Z,97.21
2022-11-03T22:05:41.368Z,96.88
2022-11-03T22:08:23.275Z,96.40
2022-11-03T22:11:30.857Z,96.57
2022-11-03T22:14:09.700Z,96.20
2022-11-03T22:16:51.413Z,95.84
2022-11-03T22:19:56.222Z,95.85
2022-11-03T22:22:52.259Z,94.98
2022-11-03T22:25:50.291Z,95.16
2022-11-03T22:29:04.004Z,94.94
2022-11-03T22:32:53.242Z,94.90
2022-11-03T22:36:41.968Z,94.77
2022-11-03T22:40:07.597Z,94.57
2022-11-03T22:43:36.391Z,94.29
2022-11-03T22:46:24.176Z,94.17
2022-11-03T22:49:08.684Z,93.68
2022-11-03T22:52:02.369Z,93.00
2022-11-03T22:54:58.085Z,92.98
2022-11-03T22:57:51.008Z,92.42
2022-11-03T23:00:46.374Z,92.47
2022-11-03T23:03:35.899Z,92.22
2022-11-03T23:06:47.925Z,91.82
2022-11-03T23:09:30.365Z,91.42
2022-11-03T23:12:22.085Z,91.46
2022-11-03T23:15:31.654Z,91.36
2022-11-03T23:18:40.365Z,91.50
2022-11-03T23:21:27.165Z,91.56
2022-11-03T23:24:31.351Z,91.50
2022-11-03T23:27:19.727Z,90.93
2022-11-03T23:30:05.438Z,90.82
2022-11-03T23:33:24.385Z,91.05
2022-11-03T23:36:39.919Z,90.77
2022-11-03T23:39:29.713Z,90.93
2022-11-03T23:42:28.661Z,90.82
2022-11-03T23:45:55.599Z,91.19
2022-11-03T23:49:02.467Z,90.86
2022-11-03T23:51:49.269Z,90.59
2022-11-03T23:54:31.925Z,90.37
2022-11-03T23:57:36.731Z,90.24
